sensor_id;sensor_type;location;lat;lon;timestamp;pressure;altitude;pressure_sealevel;temperature;humidity
64616;BME280;51027;42.162;24.754;2023-02-20T00:01:22;99860.13;;;13.51;49.09
64616;BME280;51027;42.162;24.754;2023-02-20T00:03:47;99871.66;;;13.68;48.84
64616;BME280;51027;42.162;24.754;2023-02-20T00:06:13;99878.91;;;13.64;48.95
64616;BME280;51027;42.162;24.754;2023-02-20T00:08:38;99867.81;;;13.56;48.92
64616;BME280;51027;42.162;24.754;2023-02-20T00:11:04;99896.56;;;13.64;48.84
64616;BME280;51027;42.162;24.754;2023-02-20T00:13:29;99891.28;;;13.64;48.72
64616;BME280;51027;42.162;24.754;2023-02-20T00:15:55;99898.63;;;13.57;48.81
64616;BME280;51027;42.162;24.754;2023-02-20T00:18:20;99881.22;;;13.53;48.74
64616;BME280;51027;42.162;24.754;2023-02-20T00:20:46;99870.97;;;13.45;48.77
64616;BME280;51027;42.162;24.754;2023-02-20T00:23:12;99900.34;;;13.58;48.75
64616;BME280;51027;42.162;24.754;2023-02-20T00:25:37;99906.47;;;13.60;48.57
64616;BME280;51027;42.162;24.754;2023-02-20T00:28:02;99900.34;;;13.58;48.73
64616;BME280;51027;42.162;24.754;2023-02-20T00:30:28;99895.88;;;13.60;48.28
64616;BME280;51027;42.162;24.754;2023-02-20T00:32:55;99891.78;;;13.53;48.57
64616;BME280;51027;42.162;24.754;2023-02-20T00:35:22;99916.63;;;13.50;48.75
64616;BME280;51027;42.162;24.754;2023-02-20T00:37:48;99889.81;;;13.39;49.00
64616;BME280;51027;42.162;24.754;2023-02-20T00:40:15;99902.72;;;13.45;48.91
64616;BME280;51027;42.162;24.754;2023-02-20T00:42:40;99892.81;;;13.32;49.26
64616;BME280;51027;42.162;24.754;2023-02-20T00:45:06;99902.22;;;13.37;49.47
64616;BME280;51027;42.162;24.754;2023-02-20T00:47:32;99888.28;;;13.15;49.68
64616;BME280;51027;42.162;24.754;2023-02-20T00:49:57;99898.38;;;13.25;49.76
64616;BME280;51027;42.162;24.754;2023-02-20T00:52:24;99898.31;;;13.27;49.75
64616;BME280;51027;42.162;24.754;2023-02-20T00:54:49;99903.13;;;13.19;49.94
64616;BME280;51027;42.162;24.754;2023-02-20T00:57:15;99903.19;;;12.97;50.50
64616;BME280;51027;42.162;24.754;2023-02-20T00:59:41;99873.97;;;12.81;50.62
64616;BME280;51027;42.162;24.754;2023-02-20T01:02:06;99874.53;;;12.69;51.21
64616;BME280;51027;42.162;24.754;2023-02-20T01:04:32;99875.47;;;12.68;51.42
64616;BME280;51027;42.162;24.754;2023-02-20T01:06:57;99891.03;;;12.74;51.50
64616;BME280;51027;42.162;24.754;2023-02-20T01:09:23;99896.22;;;12.57;51.77
64616;BME280;51027;42.162;24.754;2023-02-20T01:11:50;99880.41;;;12.55;51.61
64616;BME280;51027;42.162;24.754;2023-02-20T01:14:15;99899.56;;;12.60;51.77
64616;BME280;51027;42.162;24.754;2023-02-20T01:16:49;99911.25;;;12.55;52.05
64616;BME280;51027;42.162;24.754;2023-02-20T01:19:16;99909.84;;;12.48;52.27
64616;BME280;51027;42.162;24.754;2023-02-20T01:21:42;99885.84;;;12.32;52.18
64616;BME280;51027;42.162;24.754;2023-02-20T01:24:07;99912.72;;;12.42;52.31
64616;BME280;51027;42.162;24.754;2023-02-20T01:26:33;99908.13;;;12.47;52.20
64616;BME280;51027;42.162;24.754;2023-02-20T01:29:01;99894.03;;;12.26;52.62
64616;BME280;51027;42.162;24.754;2023-02-20T01:31:26;99905.34;;;12.29;52.82
64616;BME280;51027;42.162;24.754;2023-02-20T01:33:52;99912.56;;;12.24;53.02
64616;BME280;51027;42.162;24.754;2023-02-20T01:36:17;99915.44;;;12.20;53.11
64616;BME280;51027;42.162;24.754;2023-02-20T01:38:43;99911.94;;;12.19;53.17
64616;BME280;51027;42.162;24.754;2023-02-20T01:41:09;99884.59;;;12.00;53.31
64616;BME280;51027;42.162;24.754;2023-02-20T01:43:35;99919.09;;;12.16;53.26
64616;BME280;51027;42.162;24.754;2023-02-20T01:48:48;99924.44;;;12.14;53.47
64616;BME280;51027;42.162;24.754;2023-02-20T01:51:14;99922.75;;;12.13;53.41
64616;BME280;51027;42.162;24.754;2023-02-20T01:53:40;99928.03;;;12.13;53.41
64616;BME280;51027;42.162;24.754;2023-02-20T01:56:07;99927.00;;;12.17;53.36
64616;BME280;51027;42.162;24.754;2023-02-20T01:58:40;99926.91;;;12.19;53.14
64616;BME280;51027;42.162;24.754;2023-02-20T02:01:08;99925.84;;;12.23;52.97
64616;BME280;51027;42.162;24.754;2023-02-20T02:03:39;99904.56;;;12.05;53.13
64616;BME280;51027;42.162;24.754;2023-02-20T02:06:06;99935.41;;;12.25;52.97
64616;BME280;51027;42.162;24.754;2023-02-20T02:08:35;99930.78;;;12.10;53.35
64616;BME280;51027;42.162;24.754;2023-02-20T02:11:03;99944.78;;;12.12;53.39
64616;BME280;51027;42.162;24.754;2023-02-20T02:13:29;99947.00;;;12.01;53.75
64616;BME280;51027;42.162;24.754;2023-02-20T02:41:43;99987.91;;;11.45;56.22
64616;BME280;51027;42.162;24.754;2023-02-20T02:44:26;99990.81;;;11.38;56.49
64616;BME280;51027;42.162;24.754;2023-02-20T02:49:35;99990.00;;;11.36;56.77
64616;BME280;51027;42.162;24.754;2023-02-20T02:52:03;99987.66;;;11.28;57.11
64616;BME280;51027;42.162;24.754;2023-02-20T02:54:29;99987.53;;;11.31;57.16
64616;BME280;51027;42.162;24.754;2023-02-20T02:57:20;100006.75;;;11.35;57.35
64616;BME280;51027;42.162;24.754;2023-02-20T02:59:47;100009.03;;;11.44;57.15
64616;BME280;51027;42.162;24.754;2023-02-20T03:02:16;100011.63;;;11.45;57.15
64616;BME280;51027;42.162;24.754;2023-02-20T03:04:45;100016.06;;;11.43;57.48
64616;BME280;51027;42.162;24.754;2023-02-20T03:07:15;100016.06;;;11.43;57.30
64616;BME280;51027;42.162;24.754;2023-02-20T03:10:25;100021.41;;;11.42;57.57
64616;BME280;51027;42.162;24.754;2023-02-20T03:12:33;100017.47;;;11.30;58.02
64616;BME280;51027;42.162;24.754;2023-02-20T03:20:22;100041.56;;;11.44;57.94
64616;BME280;51027;42.162;24.754;2023-02-20T03:22:58;100038.75;;;11.49;57.91
64616;BME280;51027;42.162;24.754;2023-02-20T03:25:29;100025.22;;;11.35;57.95
64616;BME280;51027;42.162;24.754;2023-02-20T03:28:09;100015.00;;;11.25;58.08
64616;BME280;51027;42.162;24.754;2023-02-20T03:30:46;100036.38;;;11.41;58.22
64616;BME280;51027;42.162;24.754;2023-02-20T03:36:23;100036.50;;;11.38;58.52
64616;BME280;51027;42.162;24.754;2023-02-20T03:39:14;100015.28;;;11.18;58.65
64616;BME280;51027;42.162;24.754;2023-02-20T03:42:03;100041.44;;;11.24;58.90
64616;BME280;51027;42.162;24.754;2023-02-20T03:44:49;100011.75;;;10.94;59.19
64616;BME280;51027;42.162;24.754;2023-02-20T03:47:18;100061.47;;;11.28;59.07
64616;BME280;51027;42.162;24.754;2023-02-20T03:49:48;100053.91;;;11.19;59.31
64616;BME280;51027;42.162;24.754;2023-02-20T03:52:15;100072.28;;;11.20;59.43
64616;BME280;51027;42.162;24.754;2023-02-20T03:54:41;100077.44;;;11.25;59.31
64616;BME280;51027;42.162;24.754;2023-02-20T03:57:20;100074.94;;;11.20;59.43
64616;BME280;51027;42.162;24.754;2023-02-20T04:00:11;100077.63;;;11.19;59.48
64616;BME280;51027;42.162;24.754;2023-02-20T04:02:42;100084.47;;;11.24;59.08
64616;BME280;51027;42.162;24.754;2023-02-20T04:05:12;100086.47;;;11.18;59.32
64616;BME280;51027;42.162;24.754;2023-02-20T04:10:16;100066.53;;;11.09;59.53
64616;BME280;51027;42.162;24.754;2023-02-20T04:12:44;100078.81;;;11.10;60.03
64616;BME280;51027;42.162;24.754;2023-02-20T04:15:11;100075.13;;;11.16;59.93
64616;BME280;51027;42.162;24.754;2023-02-20T04:18:13;100087.53;;;11.12;60.17
64616;BME280;51027;42.162;24.754;2023-02-20T04:20:31;100072.13;;;11.00;60.45
64616;BME280;51027;42.162;24.754;2023-02-20T04:23:01;100071.16;;;11.03;60.58
64616;BME280;51027;42.162;24.754;2023-02-20T04:25:43;100074.84;;;10.99;60.89
64616;BME280;51027;42.162;24.754;2023-02-20T04:28:11;100067.97;;;10.94;61.08
64616;BME280;51027;42.162;24.754;2023-02-20T04:30:37;100063.75;;;10.89;61.20
64616;BME280;51027;42.162;24.754;2023-02-20T04:33:02;100067.50;;;10.82;60.85
64616;BME280;51027;42.162;24.754;2023-02-20T04:35:28;100068.97;;;10.90;60.44
64616;BME280;51027;42.162;24.754;2023-02-20T04:37:53;100067.19;;;10.91;60.23
64616;BME280;51027;42.162;24.754;2023-02-20T04:40:21;100066.19;;;10.95;59.78
64616;BME280;51027;42.162;24.754;2023-02-20T04:42:46;99983.69;;;10.43;59.38
64616;BME280;51027;42.162;24.754;2023-02-20T04:45:12;100012.06;;;10.60;59.27
64616;BME280;51027;42.162;24.754;2023-02-20T04:47:37;100077.41;;;11.00;58.95
64616;BME280;51027;42.162;24.754;2023-02-20T04:50:03;100079.34;;;10.95;59.10
64616;BME280;51027;42.162;24.754;2023-02-20T04:52:29;100070.84;;;10.87;59.42
64616;BME280;51027;42.162;24.754;2023-02-20T04:54:54;100065.47;;;10.90;59.17
64616;BME280;51027;42.162;24.754;2023-02-20T04:57:20;100085.56;;;10.94;58.54
64616;BME280;51027;42.162;24.754;2023-02-20T04:59:46;100087.22;;;10.96;57.75
64616;BME280;51027;42.162;24.754;2023-02-20T05:02:12;100098.72;;;10.94;57.63
64616;BME280;51027;42.162;24.754;2023-02-20T05:04:37;100054.97;;;10.88;57.12
64616;BME280;51027;42.162;24.754;2023-02-20T05:07:03;100084.47;;;11.00;57.03
64616;BME280;51027;42.162;24.754;2023-02-20T05:09:28;100088.19;;;10.94;56.89
64616;BME280;51027;42.162;24.754;2023-02-20T05:11:54;100087.25;;;10.95;56.93
64616;BME280;51027;42.162;24.754;2023-02-20T05:14:20;100095.38;;;10.89;57.00
64616;BME280;51027;42.162;24.754;2023-02-20T05:16:46;100098.19;;;10.83;57.06
64616;BME280;51027;42.162;24.754;2023-02-20T05:19:12;100092.34;;;10.75;57.55
64616;BME280;51027;42.162;24.754;2023-02-20T05:21:41;100078.34;;;10.73;57.20
64616;BME280;51027;42.162;24.754;2023-02-20T05:24:25;100074.34;;;10.61;57.40
64616;BME280;51027;42.162;24.754;2023-02-20T05:26:53;100108.28;;;10.70;57.53
64616;BME280;51027;42.162;24.754;2023-02-20T05:29:19;100117.06;;;10.71;57.50
64616;BME280;51027;42.162;24.754;2023-02-20T05:31:44;100129.41;;;10.68;57.83
64616;BME280;51027;42.162;24.754;2023-02-20T05:34:10;100121.94;;;10.56;57.72
64616;BME280;51027;42.162;24.754;2023-02-20T05:36:35;100137.13;;;10.75;57.37
64616;BME280;51027;42.162;24.754;2023-02-20T05:39:01;100110.47;;;10.57;57.43
64616;BME280;51027;42.162;24.754;2023-02-20T05:41:26;100144.03;;;10.79;57.18
64616;BME280;51027;42.162;24.754;2023-02-20T05:43:51;100132.16;;;10.65;57.26
64616;BME280;51027;42.162;24.754;2023-02-20T05:46:22;100151.06;;;10.78;57.07
64616;BME280;51027;42.162;24.754;2023-02-20T05:48:48;100169.91;;;10.92;56.65
64616;BME280;51027;42.162;24.754;2023-02-20T05:51:23;100174.38;;;10.90;56.56
64616;BME280;51027;42.162;24.754;2023-02-20T05:53:50;100180.94;;;11.05;56.41
64616;BME280;51027;42.162;24.754;2023-02-20T05:56:16;100184.13;;;11.13;55.98
64616;BME280;51027;42.162;24.754;2023-02-20T05:58:42;100181.50;;;11.13;55.82
64616;BME280;51027;42.162;24.754;2023-02-20T06:01:08;100188.38;;;11.19;56.17
64616;BME280;51027;42.162;24.754;2023-02-20T06:03:34;100188.97;;;11.27;55.68
64616;BME280;51027;42.162;24.754;2023-02-20T06:05:59;100193.22;;;11.31;55.29
64616;BME280;51027;42.162;24.754;2023-02-20T06:08:27;100196.09;;;11.50;54.92
64616;BME280;51027;42.162;24.754;2023-02-20T06:10:52;100196.41;;;11.66;54.44
64616;BME280;51027;42.162;24.754;2023-02-20T06:13:18;100202.09;;;11.80;53.86
64616;BME280;51027;42.162;24.754;2023-02-20T06:15:43;100211.44;;;11.89;53.09
64616;BME280;51027;42.162;24.754;2023-02-20T06:18:08;100207.50;;;12.00;52.71
64616;BME280;51027;42.162;24.754;2023-02-20T06:20:34;100209.03;;;12.75;50.67
64616;BME280;51027;42.162;24.754;2023-02-20T06:22:59;100216.72;;;13.24;48.97
64616;BME280;51027;42.162;24.754;2023-02-20T06:25:25;100215.34;;;13.14;47.74
64616;BME280;51027;42.162;24.754;2023-02-20T06:27:50;100210.03;;;12.94;48.00
64616;BME280;51027;42.162;24.754;2023-02-20T06:30:16;100215.56;;;13.72;46.10
64616;BME280;51027;42.162;24.754;2023-02-20T06:32:41;100252.34;;;14.38;44.64
64616;BME280;51027;42.162;24.754;2023-02-20T06:35:07;100240.75;;;14.97;43.29
64616;BME280;51027;42.162;24.754;2023-02-20T06:37:35;100228.41;;;15.49;41.68
64616;BME280;51027;42.162;24.754;2023-02-20T06:40:03;100256.19;;;15.42;42.16
64616;BME280;51027;42.162;24.754;2023-02-20T06:42:29;100242.66;;;15.12;42.86
64616;BME280;51027;42.162;24.754;2023-02-20T06:44:54;100242.22;;;16.24;40.71
64616;BME280;51027;42.162;24.754;2023-02-20T06:47:21;100209.91;;;16.31;39.90
64616;BME280;51027;42.162;24.754;2023-02-20T06:49:46;100239.56;;;16.24;39.90
64616;BME280;51027;42.162;24.754;2023-02-20T06:52:12;100231.63;;;16.39;39.78
64616;BME280;51027;42.162;24.754;2023-02-20T06:54:38;100223.56;;;14.30;44.08
64616;BME280;51027;42.162;24.754;2023-02-20T06:57:04;100224.69;;;16.04;40.87
64616;BME280;51027;42.162;24.754;2023-02-20T06:59:30;100225.59;;;16.20;40.29
64616;BME280;51027;42.162;24.754;2023-02-20T07:01:56;100197.94;;;16.40;39.72
64616;BME280;51027;42.162;24.754;2023-02-20T07:04:23;100207.06;;;16.99;38.87
64616;BME280;51027;42.162;24.754;2023-02-20T07:06:50;100187.91;;;16.45;39.09
64616;BME280;51027;42.162;24.754;2023-02-20T07:09:17;100224.75;;;15.87;40.27
64616;BME280;51027;42.162;24.754;2023-02-20T07:11:44;100208.47;;;16.26;39.33
64616;BME280;51027;42.162;24.754;2023-02-20T07:14:10;100181.47;;;15.50;40.70
64616;BME280;51027;42.162;24.754;2023-02-20T07:16:35;100210.09;;;16.77;38.75
64616;BME280;51027;42.162;24.754;2023-02-20T07:19:00;100211.44;;;14.81;42.02
64616;BME280;51027;42.162;24.754;2023-02-20T07:21:26;100201.91;;;15.31;41.03
64616;BME280;51027;42.162;24.754;2023-02-20T07:23:51;100204.50;;;15.32;40.65
64616;BME280;51027;42.162;24.754;2023-02-20T07:26:26;100202.78;;;15.31;40.35
64616;BME280;51027;42.162;24.754;2023-02-20T07:28:52;100220.69;;;15.62;40.06
64616;BME280;51027;42.162;24.754;2023-02-20T07:31:18;100209.94;;;15.98;39.49
64616;BME280;51027;42.162;24.754;2023-02-20T07:33:43;100206.84;;;15.73;38.87
64616;BME280;51027;42.162;24.754;2023-02-20T07:36:10;100211.63;;;16.17;37.91
64616;BME280;51027;42.162;24.754;2023-02-20T07:38:36;100217.16;;;16.45;37.23
64616;BME280;51027;42.162;24.754;2023-02-20T07:41:02;100254.44;;;16.43;37.06
64616;BME280;51027;42.162;24.754;2023-02-20T07:43:28;100239.00;;;17.75;34.74
64616;BME280;51027;42.162;24.754;2023-02-20T07:45:53;100229.88;;;17.79;34.82
64616;BME280;51027;42.162;24.754;2023-02-20T07:48:18;100209.81;;;18.30;33.63
64616;BME280;51027;42.162;24.754;2023-02-20T07:50:44;100222.38;;;18.14;33.66
64616;BME280;51027;42.162;24.754;2023-02-20T07:53:13;100214.41;;;18.84;31.83
64616;BME280;51027;42.162;24.754;2023-02-20T07:55:39;100215.75;;;19.58;30.59
64616;BME280;51027;42.162;24.754;2023-02-20T07:58:04;100229.13;;;18.62;31.52
64616;BME280;51027;42.162;24.754;2023-02-20T08:00:29;100205.97;;;19.44;30.41
64616;BME280;51027;42.162;24.754;2023-02-20T08:02:55;100219.84;;;18.82;30.42
64616;BME280;51027;42.162;24.754;2023-02-20T08:05:21;100205.72;;;17.82;31.97
64616;BME280;51027;42.162;24.754;2023-02-20T08:07:48;100213.59;;;17.69;33.38
64616;BME280;51027;42.162;24.754;2023-02-20T08:10:15;100198.59;;;18.11;32.78
64616;BME280;51027;42.162;24.754;2023-02-20T08:12:41;100204.50;;;17.27;33.23
64616;BME280;51027;42.162;24.754;2023-02-20T08:15:07;100187.50;;;19.01;30.59
64616;BME280;51027;42.162;24.754;2023-02-20T08:17:37;100226.22;;;18.94;30.26
64616;BME280;51027;42.162;24.754;2023-02-20T08:20:04;100213.09;;;19.70;28.74
64616;BME280;51027;42.162;24.754;2023-02-20T08:22:30;100199.72;;;20.34;27.93
64616;BME280;51027;42.162;24.754;2023-02-20T08:24:55;100207.06;;;21.40;26.46
64616;BME280;51027;42.162;24.754;2023-02-20T08:27:20;100185.22;;;21.10;26.53
64616;BME280;51027;42.162;24.754;2023-02-20T08:29:46;100209.56;;;21.07;26.47
64616;BME280;51027;42.162;24.754;2023-02-20T08:32:11;100206.59;;;19.35;28.17
64616;BME280;51027;42.162;24.754;2023-02-20T08:34:37;100214.41;;;20.03;27.62
64616;BME280;51027;42.162;24.754;2023-02-20T08:37:02;100195.56;;;19.26;28.27
64616;BME280;51027;42.162;24.754;2023-02-20T08:39:28;100203.16;;;18.79;29.14
64616;BME280;51027;42.162;24.754;2023-02-20T08:41:54;100193.56;;;19.43;27.77
64616;BME280;51027;42.162;24.754;2023-02-20T08:44:19;100185.22;;;18.95;28.22
64616;BME280;51027;42.162;24.754;2023-02-20T08:46:49;100194.06;;;18.95;27.80
64616;BME280;51027;42.162;24.754;2023-02-20T08:49:16;100183.63;;;19.45;27.22
64616;BME280;51027;42.162;24.754;2023-02-20T08:51:44;100193.09;;;19.63;26.86
64616;BME280;51027;42.162;24.754;2023-02-20T08:54:10;100165.19;;;19.67;26.79
64616;BME280;51027;42.162;24.754;2023-02-20T08:56:35;100167.34;;;22.25;24.18
64616;BME280;51027;42.162;24.754;2023-02-20T08:59:01;100177.34;;;23.11;23.01
64616;BME280;51027;42.162;24.754;2023-02-20T09:01:26;100164.06;;;21.42;23.82
64616;BME280;51027;42.162;24.754;2023-02-20T09:03:51;100181.16;;;23.30;22.49
64616;BME280;51027;42.162;24.754;2023-02-20T09:06:17;100198.81;;;22.23;22.48
64616;BME280;51027;42.162;24.754;2023-02-20T09:08:42;100197.22;;;21.17;23.85
64616;BME280;51027;42.162;24.754;2023-02-20T09:11:08;100195.03;;;21.46;22.72
64616;BME280;51027;42.162;24.754;2023-02-20T09:13:41;100218.03;;;21.37;23.48
64616;BME280;51027;42.162;24.754;2023-02-20T09:16:06;100207.31;;;22.06;20.84
64616;BME280;51027;42.162;24.754;2023-02-20T09:18:32;100205.97;;;21.89;21.37
64616;BME280;51027;42.162;24.754;2023-02-20T09:20:57;100213.81;;;23.46;20.23
64616;BME280;51027;42.162;24.754;2023-02-20T09:23:23;100227.75;;;24.34;18.96
64616;BME280;51027;42.162;24.754;2023-02-20T09:25:49;100235.03;;;24.23;19.01
64616;BME280;51027;42.162;24.754;2023-02-20T09:28:15;100239.22;;;22.22;20.03
64616;BME280;51027;42.162;24.754;2023-02-20T09:30:40;100243.00;;;21.84;20.80
64616;BME280;51027;42.162;24.754;2023-02-20T09:33:06;100248.34;;;21.38;21.26
64616;BME280;51027;42.162;24.754;2023-02-20T09:35:31;100234.91;;;21.62;20.57
64616;BME280;51027;42.162;24.754;2023-02-20T09:37:57;100234.94;;;24.03;18.74
64616;BME280;51027;42.162;24.754;2023-02-20T09:40:25;100226.59;;;24.06;19.16
64616;BME280;51027;42.162;24.754;2023-02-20T09:45:32;100228.88;;;23.90;19.10
64616;BME280;51027;42.162;24.754;2023-02-20T09:51:01;100225.53;;;23.77;17.64
64616;BME280;51027;42.162;24.754;2023-02-20T09:56:19;100226.75;;;23.63;18.10
64616;BME280;51027;42.162;24.754;2023-02-20T10:01:37;100220.91;;;22.60;17.65
64616;BME280;51027;42.162;24.754;2023-02-20T10:04:09;100202.38;;;23.85;17.08
64616;BME280;51027;42.162;24.754;2023-02-20T10:06:37;100230.19;;;22.23;18.16
64616;BME280;51027;42.162;24.754;2023-02-20T10:09:03;100221.94;;;21.79;18.46
64616;BME280;51027;42.162;24.754;2023-02-20T10:14:50;100209.94;;;23.71;17.14
64616;BME280;51027;42.162;24.754;2023-02-20T10:20:33;100199.84;;;24.95;15.92
64616;BME280;51027;42.162;24.754;2023-02-20T10:22:57;100209.63;;;23.00;17.45
64616;BME280;51027;42.162;24.754;2023-02-20T10:25:53;100198.41;;;23.48;16.75
64616;BME280;51027;42.162;24.754;2023-02-20T10:28:22;100213.94;;;22.58;17.55
64616;BME280;51027;42.162;24.754;2023-02-20T10:36:10;100178.47;;;21.52;17.72
64616;BME280;51027;42.162;24.754;2023-02-20T10:38:41;100196.22;;;21.77;17.89
64616;BME280;51027;42.162;24.754;2023-02-20T10:43:39;100175.50;;;21.90;17.65
64616;BME280;51027;42.162;24.754;2023-02-20T10:48:38;100190.91;;;22.33;17.35
64616;BME280;51027;42.162;24.754;2023-02-20T10:51:08;100179.03;;;21.79;17.52
64616;BME280;51027;42.162;24.754;2023-02-20T10:53:39;100177.06;;;23.67;16.38
64616;BME280;51027;42.162;24.754;2023-02-20T11:01:25;100184.31;;;22.14;17.44
64616;BME280;51027;42.162;24.754;2023-02-20T11:03:56;100158.03;;;19.93;18.96
64616;BME280;51027;42.162;24.754;2023-02-20T11:06:32;100185.41;;;19.84;19.26
64616;BME280;51027;42.162;24.754;2023-02-20T11:08:58;100172.78;;;19.86;19.52
64616;BME280;51027;42.162;24.754;2023-02-20T11:11:37;100175.16;;;20.53;18.79
64616;BME280;51027;42.162;24.754;2023-02-20T11:16:53;100161.81;;;22.71;16.67
64616;BME280;51027;42.162;24.754;2023-02-20T11:19:46;100175.16;;;22.51;16.72
64616;BME280;51027;42.162;24.754;2023-02-20T11:22:11;100166.63;;;22.12;17.32
64616;BME280;51027;42.162;24.754;2023-02-20T11:24:38;100162.06;;;22.57;16.73
64616;BME280;51027;42.162;24.754;2023-02-20T11:27:19;100165.25;;;22.62;16.66
64616;BME280;51027;42.162;24.754;2023-02-20T11:32:37;100131.78;;;21.08;17.72
64616;BME280;51027;42.162;24.754;2023-02-20T11:37:41;100152.22;;;25.05;15.02
64616;BME280;51027;42.162;24.754;2023-02-20T11:42:44;100163.03;;;25.24;14.62
64616;BME280;51027;42.162;24.754;2023-02-20T11:45:15;100119.44;;;22.21;16.27
64616;BME280;51027;42.162;24.754;2023-02-20T11:47:42;100155.59;;;21.70;17.19
64616;BME280;51027;42.162;24.754;2023-02-20T11:50:17;100166.78;;;20.70;18.03
64616;BME280;51027;42.162;24.754;2023-02-20T11:53:03;100169.78;;;23.05;16.47
64616;BME280;51027;42.162;24.754;2023-02-20T11:55:32;100176.25;;;23.35;15.95
64616;BME280;51027;42.162;24.754;2023-02-20T11:57:58;100173.44;;;21.36;17.82
64616;BME280;51027;42.162;24.754;2023-02-20T12:00:29;100165.00;;;21.30;17.74
64616;BME280;51027;42.162;24.754;2023-02-20T12:11:16;100170.41;;;19.04;19.57
64616;BME280;51027;42.162;24.754;2023-02-20T12:13:45;100172.41;;;21.61;18.04
64616;BME280;51027;42.162;24.754;2023-02-20T12:16:24;100169.66;;;21.39;18.42
64616;BME280;51027;42.162;24.754;2023-02-20T12:25:04;100181.06;;;24.55;15.73
64616;BME280;51027;42.162;24.754;2023-02-20T12:30:25;100172.03;;;24.85;15.07
64616;BME280;51027;42.162;24.754;2023-02-20T12:33:17;100178.13;;;25.83;15.22
64616;BME280;51027;42.162;24.754;2023-02-20T12:38:38;100157.34;;;25.18;14.97
64616;BME280;51027;42.162;24.754;2023-02-20T12:47:02;100156.94;;;24.13;16.06
64616;BME280;51027;42.162;24.754;2023-02-20T12:55:50;100147.00;;;22.11;17.84
64616;BME280;51027;42.162;24.754;2023-02-20T13:00:54;100151.78;;;20.91;18.84
64616;BME280;51027;42.162;24.754;2023-02-20T13:06:14;100155.88;;;24.85;15.58
64616;BME280;51027;42.162;24.754;2023-02-20T13:11:42;100148.09;;;24.32;15.91
64616;BME280;51027;42.162;24.754;2023-02-20T13:21:48;100137.59;;;25.27;15.39
64616;BME280;51027;42.162;24.754;2023-02-20T13:29:22;100162.81;;;23.55;16.63
64616;BME280;51027;42.162;24.754;2023-02-20T13:31:52;100156.16;;;22.75;17.11
64616;BME280;51027;42.162;24.754;2023-02-20T13:36:47;100151.13;;;27.21;14.21
64616;BME280;51027;42.162;24.754;2023-02-20T13:47:45;100167.56;;;27.27;13.81
64616;BME280;51027;42.162;24.754;2023-02-20T13:55:00;100180.13;;;24.85;14.64
64616;BME280;51027;42.162;24.754;2023-02-20T13:57:30;100167.72;;;26.63;13.81
64616;BME280;51027;42.162;24.754;2023-02-20T14:00:02;100177.47;;;25.43;14.40
64616;BME280;51027;42.162;24.754;2023-02-20T14:02:40;100178.44;;;26.27;14.02
64616;BME280;51027;42.162;24.754;2023-02-20T14:05:06;100182.41;;;21.70;16.96
64616;BME280;51027;42.162;24.754;2023-02-20T14:07:36;100176.34;;;21.09;18.99
64616;BME280;51027;42.162;24.754;2023-02-20T14:18:20;100165.41;;;20.88;17.71
64616;BME280;51027;42.162;24.754;2023-02-20T14:20:48;100158.16;;;21.25;17.65
64616;BME280;51027;42.162;24.754;2023-02-20T14:26:01;100194.84;;;21.82;17.32
64616;BME280;51027;42.162;24.754;2023-02-20T14:28:29;100198.94;;;22.44;16.76
64616;BME280;51027;42.162;24.754;2023-02-20T14:33:29;100171.06;;;22.67;17.05
64616;BME280;51027;42.162;24.754;2023-02-20T14:41:22;100182.03;;;21.05;18.57
64616;BME280;51027;42.162;24.754;2023-02-20T14:44:03;100176.00;;;22.06;18.56
64616;BME280;51027;42.162;24.754;2023-02-20T14:46:34;100179.19;;;21.19;19.09
64616;BME280;51027;42.162;24.754;2023-02-20T14:49:11;100186.34;;;20.94;18.48
64616;BME280;51027;42.162;24.754;2023-02-20T14:51:37;100192.34;;;22.37;17.47
64616;BME280;51027;42.162;24.754;2023-02-20T14:54:21;100182.94;;;19.28;21.19
64616;BME280;51027;42.162;24.754;2023-02-20T14:56:48;100173.22;;;19.27;21.49
64616;BME280;51027;42.162;24.754;2023-02-20T14:59:18;100190.53;;;19.74;21.14
64616;BME280;51027;42.162;24.754;2023-02-20T15:01:52;100188.81;;;19.21;21.39
64616;BME280;51027;42.162;24.754;2023-02-20T15:04:18;100198.53;;;18.68;22.45
64616;BME280;51027;42.162;24.754;2023-02-20T15:06:46;100188.50;;;18.57;22.69
64616;BME280;51027;42.162;24.754;2023-02-20T15:09:13;100190.03;;;17.02;24.52
64616;BME280;51027;42.162;24.754;2023-02-20T15:11:52;100198.28;;;16.50;24.79
64616;BME280;51027;42.162;24.754;2023-02-20T15:14:22;100202.84;;;16.48;24.72
64616;BME280;51027;42.162;24.754;2023-02-20T15:17:05;100203.56;;;16.18;24.18
64616;BME280;51027;42.162;24.754;2023-02-20T15:19:34;100210.28;;;16.25;24.28
64616;BME280;51027;42.162;24.754;2023-02-20T15:22:01;100220.00;;;16.09;24.17
64616;BME280;51027;42.162;24.754;2023-02-20T15:24:34;100217.34;;;15.76;24.50
64616;BME280;51027;42.162;24.754;2023-02-20T15:29:36;100226.13;;;15.59;25.23
64616;BME280;51027;42.162;24.754;2023-02-20T15:32:05;100237.47;;;15.45;24.81
64616;BME280;51027;42.162;24.754;2023-02-20T15:34:38;100239.88;;;15.33;24.01
64616;BME280;51027;42.162;24.754;2023-02-20T15:39:43;100229.19;;;14.98;23.42
64616;BME280;51027;42.162;24.754;2023-02-20T15:42:12;100236.09;;;15.02;23.78
64616;BME280;51027;42.162;24.754;2023-02-20T15:44:37;100241.97;;;14.90;23.92
64616;BME280;51027;42.162;24.754;2023-02-20T15:47:03;100247.78;;;14.79;24.35
64616;BME280;51027;42.162;24.754;2023-02-20T15:49:28;100252.81;;;14.66;24.75